createdAt,value
2017-11-04T00:00:01.715Z,767.72
2017-11-04T00:00:05.918Z,767.76
2017-11-04T00:00:10.248Z,767.73
2017-11-04T00:00:14.611Z,767.71
2017-11-04T00:00:18.820Z,767.71
2017-11-04T00:00:23.170Z,767.68
2017-11-04T00:00:27.254Z,767.65
2017-11-04T00:00:31.072Z,767.63
2017-11-04T00:00:34.759Z,767.65
2017-11-04T00:00:38.980Z,767.7
2017-11-04T00:00:42.804Z,767.7
2017-11-04T00:00:47.149Z,767.68
2017-11-04T00:00:51.099Z,767.67
2017-11-04T00:00:55.050Z,767.72
2017-11-04T00:00:59.261Z,767.69
2017-11-04T00:01:03.645Z,767.69
2017-11-04T00:01:07.466Z,767.69
2017-11-04T00:01:11.686Z,767.65
2017-11-04T00:01:15.766Z,767.61
2017-11-04T00:01:19.844Z,767.67
2017-11-04T00:01:23.656Z,767.65
2017-11-04T00:01:27.862Z,767.67
2017-11-04T00:01:31.548Z,767.65
2017-11-04T00:01:35.633Z,767.71
2017-11-04T00:01:39.596Z,767.68
2017-11-04T00:01:43.804Z,767.74
2017-11-04T00:01:47.887Z,767.68
2017-11-04T00:01:52.104Z,767.71
2017-11-04T00:01:55.925Z,767.7
2017-11-04T00:02:00.136Z,767.73
2017-11-04T00:02:04.740Z,767.69
2017-11-04T00:02:08.689Z,767.7
2017-11-04T00:02:12.645Z,767.74
2017-11-04T00:02:16.723Z,767.7
2017-11-04T00:02:20.801Z,767.71
2017-11-04T00:02:24.614Z,767.69
2017-11-04T00:02:28.685Z,767.71
2017-11-04T00:02:32.760Z,767.7
2017-11-04T00:02:36.986Z,767.72
2017-11-04T00:02:41.198Z,767.71
2017-11-04T00:02:45.152Z,767.71
2017-11-04T00:02:49.102Z,767.69
2017-11-04T00:02:53.212Z,767.71
2017-11-04T00:02:57.156Z,767.68
2017-11-04T00:03:01.240Z,767.73
2017-11-04T00:03:05.494Z,767.72
2017-11-04T00:03:09.849Z,767.7
2017-11-04T00:03:13.802Z,767.72
2017-11-04T00:03:18.159Z,767.7
2017-11-04T00:03:22.368Z,767.69
2017-11-04T00:03:26.320Z,767.66
2017-11-04T00:03:30.546Z,767.71
2017-11-04T00:03:34.758Z,767.72
2017-11-04T00:03:38.839Z,767.69
2017-11-04T00:03:43.317Z,767.7
2017-11-04T00:03:47.534Z,767.69
2017-11-04T00:03:51.612Z,767.69
2017-11-04T00:03:55.701Z,767.7
2017-11-04T00:04:00.054Z,767.71
2017-11-04T00:04:03.733Z,767.7
2017-11-04T00:04:07.680Z,767.69
2017-11-04T00:04:11.772Z,767.68
2017-11-04T00:04:15.978Z,767.67
2017-11-04T00:04:20.057Z,767.7
2017-11-04T00:04:24.012Z,767.68
2017-11-04T00:04:27.697Z,767.69
2017-11-04T00:04:31.521Z,767.68
2017-11-04T00:04:35.621Z,767.69
2017-11-04T00:04:39.601Z,767.7
2017-11-04T00:04:43.553Z,767.64
2017-11-04T00:04:47.637Z,767.64
2017-11-04T00:04:51.718Z,767.67
2017-11-04T00:04:55.928Z,767.68
2017-11-04T00:05:00.138Z,767.7
2017-11-04T00:05:04.411Z,767.65
2017-11-04T00:05:08.753Z,767.68
2017-11-04T00:05:12.845Z,767.68
2017-11-04T00:05:17.072Z,767.67
2017-11-04T00:05:21.030Z,767.65
2017-11-04T00:05:25.247Z,767.65
2017-11-04T00:05:29.190Z,767.64
2017-11-04T00:05:33.403Z,767.65
2017-11-04T00:05:37.357Z,767.63
2017-11-04T00:05:41.173Z,767.65
2017-11-04T00:05:44.990Z,767.61
2017-11-04T00:05:49.203Z,767.61
2017-11-04T00:05:53.416Z,767.61
2017-11-04T00:05:57.254Z,767.57
2017-11-04T00:06:01.461Z,767.58
2017-11-04T00:06:05.686Z,767.59
2017-11-04T00:06:09.631Z,767.59
2017-11-04T00:06:13.583Z,767.58
2017-11-04T00:06:17.667Z,767.6
2017-11-04T00:06:21.758Z,767.55
2017-11-04T00:06:25.830Z,767.57
2017-11-04T00:06:29.773Z,767.56
2017-11-04T00:06:34.125Z,767.56
2017-11-04T00:06:38.207Z,767.57
2017-11-04T00:06:42.286Z,767.54
2017-11-04T00:06:46.236Z,767.5
2017-11-04T00:06:50.448Z,767.5
2017-11-04T00:06:54.535Z,767.48
2017-11-04T00:06:58.619Z,767.55
2017-11-04T00:07:02.633Z,767.52
2017-11-04T00:07:06.711Z,767.51
2017-11-04T00:07:10.920Z,767.55
2017-11-04T00:07:15.010Z,767.51
2017-11-04T00:07:18.956Z,767.52
2017-11-04T00:07:23.173Z,767.52
2017-11-04T00:07:27.117Z,767.51
2017-11-04T00:07:31.066Z,767.48
2017-11-04T00:07:34.878Z,767.49
2017-11-04T00:07:38.690Z,767.49
2017-11-04T00:07:43.030Z,767.5
2017-11-04T00:07:47.113Z,767.49
2017-11-04T00:07:51.098Z,767.48
2017-11-04T00:07:55.169Z,767.49
2017-11-04T00:07:59.246Z,767.47
2017-11-04T00:08:03.476Z,767.43
2017-11-04T00:08:07.717Z,767.46
2017-11-04T00:08:11.532Z,767.49
2017-11-04T00:08:15.759Z,767.47
2017-11-04T00:08:19.716Z,767.44
2017-11-04T00:08:23.802Z,767.4
2017-11-04T00:08:27.874Z,767.41
2017-11-04T00:08:31.828Z,767.46
2017-11-04T00:08:36.038Z,767.43
2017-11-04T00:08:40.386Z,767.43
2017-11-04T00:08:44.621Z,767.41
2017-11-04T00:08:48.546Z,767.43
2017-11-04T00:08:52.491Z,767.44
2017-11-04T00:08:56.440Z,767.46
2017-11-04T00:09:00.396Z,767.42
2017-11-04T00:09:04.625Z,767.42
2017-11-04T00:09:08.712Z,767.4
2017-11-04T00:09:12.924Z,767.42
2017-11-04T00:09:17.185Z,767.43
2017-11-04T00:09:21.133Z,767.42
2017-11-04T00:09:25.353Z,767.4
2017-11-04T00:09:29.567Z,767.4
2017-11-04T00:09:33.520Z,767.4
2017-11-04T00:09:37.599Z,767.41
2017-11-04T00:09:41.687Z,767.4
2017-11-04T00:09:45.632Z,767.38
2017-11-04T00:09:49.318Z,767.36
2017-11-04T00:09:53.273Z,767.35
2017-11-04T00:09:57.357Z,767.33
2017-11-04T00:10:01.301Z,767.33
2017-11-04T00:10:05.541Z,767.35
2017-11-04T00:10:09.230Z,767.35
2017-11-04T00:10:12.914Z,767.33
2017-11-04T00:10:16.857Z,767.31
2017-11-04T00:10:21.071Z,767.32
2017-11-04T00:10:25.149Z,767.3
2017-11-04T00:10:29.356Z,767.27
2017-11-04T00:10:33.441Z,767.26
2017-11-04T00:10:37.390Z,767.27
2017-11-04T00:10:41.603Z,767.29
2017-11-04T00:10:45.942Z,767.26
2017-11-04T00:10:49.896Z,767.25
2017-11-04T00:10:53.711Z,767.22
2017-11-04T00:10:57.660Z,767.26
2017-11-04T00:11:01.611Z,767.23
2017-11-04T00:11:05.696Z,767.23
2017-11-04T00:11:09.768Z,767.19
2017-11-04T00:11:13.714Z,767.18
2017-11-04T00:11:17.669Z,767.14
2017-11-04T00:11:21.619Z,767.18
2017-11-04T00:11:25.433Z,767.2
2017-11-04T00:11:29.653Z,767.18
2017-11-04T00:11:33.471Z,767.13
2017-11-04T00:11:37.416Z,767.14
2017-11-04T00:11:41.773Z,767.11
2017-11-04T00:11:45.587Z,767.1
2017-11-04T00:11:49.942Z,767.11
2017-11-04T00:11:54.025Z,767.08
2017-11-04T00:11:58.233Z,767.09
2017-11-04T00:12:02.590Z,767.03
2017-11-04T00:12:06.941Z,767.01
2017-11-04T00:12:10.899Z,767.02
2017-11-04T00:12:14.976Z,766.99
2017-11-04T00:12:19.188Z,766.98
2017-11-04T00:12:23.263Z,766.98
2017-11-04T00:12:27.080Z,766.97
2017-11-04T00:12:31.031Z,766.95
2017-11-04T00:12:35.120Z,766.95
2017-11-04T00:12:38.936Z,766.92
2017-11-04T00:12:43.408Z,766.88
2017-11-04T00:12:47.361Z,766.86
2017-11-04T00:12:51.438Z,766.83
2017-11-04T00:12:55.252Z,766.82
2017-11-04T00:12:59.726Z,766.8
2017-11-04T00:13:03.699Z,766.78
2017-11-04T00:13:07.623Z,766.78
2017-11-04T00:13:11.704Z,766.81
2017-11-04T00:13:15.661Z,766.79
2017-11-04T00:13:19.740Z,766.76
2017-11-04T00:13:23.684Z,766.76
2017-11-04T00:13:27.769Z,766.74
2017-11-04T00:13:31.716Z,766.73
2017-11-04T00:13:36.059Z,766.72
2017-11-04T00:13:40.136Z,766.7
2017-11-04T00:13:44.088Z,766.67
2017-11-04T00:13:48.561Z,766.67
2017-11-04T00:13:52.379Z,766.67
2017-11-04T00:13:56.334Z,766.64
2017-11-04T00:14:00.281Z,766.62
2017-11-04T00:14:04.142Z,766.64
2017-11-04T00:14:08.359Z,766.61
2017-11-04T00:14:12.720Z,766.62
2017-11-04T00:14:16.533Z,766.58
2017-11-04T00:14:20.348Z,766.58
2017-11-04T00:14:24.704Z,766.56
2017-11-04T00:14:28.652Z,766.51
2017-11-04T00:14:32.733Z,766.52
2017-11-04T00:14:37.126Z,766.54
2017-11-04T00:14:41.209Z,766.5
2017-11-04T00:14:45.552Z,766.47
2017-11-04T00:14:49.372Z,766.47
2017-11-04T00:15:25.691Z,766.35
2017-11-04T00:15:29.905Z,766.33
2017-11-04T00:15:33.879Z,766.35
2017-11-04T00:15:38.195Z,766.33
2017-11-04T00:15:42.142Z,766.3
2017-11-04T00:15:46.103Z,766.27
2017-11-04T00:15:50.320Z,766.26
2017-11-04T00:15:54.543Z,766.25
2017-11-04T00:15:58.761Z,766.21
2017-11-04T00:16:02.845Z,766.23
2017-11-04T00:16:06.923Z,766.2
2017-11-04T00:16:11.011Z,766.21
2017-11-04T00:16:15.098Z,766.22
2017-11-04T00:16:19.312Z,766.18
2017-11-04T00:16:23.398Z,766.18
2017-11-04T00:16:27.217Z,766.16
2017-11-04T00:16:31.443Z,766.17
2017-11-04T00:16:35.528Z,766.15
2017-11-04T00:16:39.740Z,766.12
2017-11-04T00:16:43.815Z,766.09
2017-11-04T00:16:47.762Z,766.12
2017-11-04T00:16:51.718Z,766.09
2017-11-04T00:16:55.662Z,766.07
2017-11-04T00:16:59.621Z,766.1
2017-11-04T00:17:03.572Z,766.07
2017-11-04T00:17:07.783Z,766.06
2017-11-04T00:17:11.862Z,766.05
2017-11-04T00:17:15.816Z,766.04
2017-11-04T00:17:19.765Z,766.06
2017-11-04T00:17:23.716Z,766.05
2017-11-04T00:17:27.669Z,766.03
2017-11-04T00:17:31.878Z,766.03
2017-11-04T00:17:36.087Z,766.01
2017-11-04T00:17:40.048Z,766.03
2017-11-04T00:17:43.871Z,765.95
2017-11-04T00:17:47.956Z,765.95
2017-11-04T00:17:52.032Z,765.89
2017-11-04T00:17:55.979Z,765.95
2017-11-04T00:18:00.099Z,765.97
2017-11-04T00:18:04.282Z,765.95
2017-11-04T00:18:08.227Z,765.92
2017-11-04T00:18:11.914Z,765.91
2017-11-04T00:18:15.730Z,765.92
2017-11-04T00:18:19.675Z,765.9
2017-11-04T00:18:23.758Z,765.88
2017-11-04T00:18:27.843Z,765.88
2017-11-04T00:18:32.051Z,765.86
2017-11-04T00:18:36.168Z,765.82
2017-11-04T00:18:40.239Z,765.8
2017-11-04T00:18:44.318Z,765.82
2017-11-04T00:18:48.532Z,765.82
2017-11-04T00:18:52.346Z,765.8
2017-11-04T00:18:56.306Z,765.78
2017-11-04T00:19:00.383Z,765.77
2017-11-04T00:19:04.519Z,765.81
2017-11-04T00:19:08.598Z,765.81
2017-11-04T00:19:12.550Z,765.8
2017-11-04T00:19:16.766Z,765.77
2017-11-04T00:19:20.989Z,765.79
2017-11-04T00:19:25.065Z,765.8
2017-11-04T00:19:28.890Z,765.79
2017-11-04T00:19:33.106Z,765.81
2017-11-04T00:19:37.066Z,765.78
2017-11-04T00:19:41.019Z,765.8
2017-11-04T00:19:45.371Z,765.79
2017-11-04T00:19:49.716Z,765.79
2017-11-04T00:19:53.530Z,765.79
2017-11-04T00:19:57.503Z,765.77
2017-11-04T00:20:01.589Z,765.76
2017-11-04T00:20:05.827Z,765.76
2017-11-04T00:20:09.643Z,765.79
2017-11-04T00:20:13.590Z,765.78
2017-11-04T00:20:17.809Z,765.76
2017-11-04T00:20:21.891Z,765.73
2017-11-04T00:20:25.834Z,765.72
2017-11-04T00:20:29.780Z,765.75
2017-11-04T00:20:33.863Z,765.76
2017-11-04T00:20:37.947Z,765.75
2017-11-04T00:20:42.287Z,765.74
2017-11-04T00:20:46.241Z,765.74
2017-11-04T00:20:50.322Z,765.73
2017-11-04T00:20:54.400Z,765.73
2017-11-04T00:20:58.474Z,765.72
2017-11-04T00:21:02.606Z,765.73
2017-11-04T00:21:06.554Z,765.71
2017-11-04T00:21:10.509Z,765.7
2017-11-04T00:21:14.593Z,765.71
2017-11-04T00:21:18.542Z,765.7
2017-11-04T00:21:22.620Z,765.72
2017-11-04T00:21:26.450Z,765.7
2017-11-04T00:21:30.537Z,765.71
2017-11-04T00:21:34.364Z,765.69
2017-11-04T00:21:38.048Z,765.72
2017-11-04T00:21:41.998Z,765.72
2017-11-04T00:21:45.820Z,765.69
2017-11-04T00:21:49.636Z,765.71
2017-11-04T00:21:53.715Z,765.73
2017-11-04T00:21:57.795Z,765.71
2017-11-04T00:22:01.749Z,765.73
2017-11-04T00:22:05.697Z,765.7
2017-11-04T00:22:09.782Z,765.68
2017-11-04T00:22:13.728Z,765.65
2017-11-04T00:22:17.812Z,765.66
2017-11-04T00:22:21.900Z,765.66
2017-11-04T00:22:25.710Z,765.67
2017-11-04T00:22:29.788Z,765.65
2017-11-04T00:22:33.870Z,765.67
2017-11-04T00:22:37.958Z,765.64
2017-11-04T00:22:42.036Z,765.69
2017-11-04T00:22:46.276Z,765.7
2017-11-04T00:22:50.227Z,765.71
2017-11-04T00:22:54.171Z,765.69
2017-11-04T00:22:58.396Z,765.7
2017-11-04T00:23:02.615Z,765.73
2017-11-04T00:23:06.559Z,765.74
2017-11-04T00:23:10.923Z,765.74
2017-11-04T00:23:15.008Z,765.72
2017-11-04T00:23:19.092Z,765.68
2017-11-04T00:23:22.913Z,765.69
2017-11-04T00:23:26.728Z,765.76
2017-11-04T00:23:30.799Z,765.76
2017-11-04T00:23:35.024Z,765.73
2017-11-04T00:23:38.972Z,765.74
2017-11-04T00:23:42.916Z,765.71
2017-11-04T00:23:46.865Z,765.71
2017-11-04T00:23:50.682Z,765.7
2017-11-04T00:23:54.634Z,765.7
2017-11-04T00:23:58.579Z,765.72
2017-11-04T00:24:02.863Z,765.72
2017-11-04T00:24:06.947Z,765.73
2017-11-04T00:24:11.023Z,765.71
2017-11-04T00:24:15.122Z,765.75
2017-11-04T00:24:19.084Z,765.75
2017-11-04T00:24:23.298Z,765.74
2017-11-04T00:24:27.248Z,765.73
2017-11-04T00:24:31.201Z,765.74
2017-11-04T00:24:35.537Z,765.76
2017-11-04T00:24:39.880Z,765.76
2017-11-04T00:24:43.567Z,765.77
2017-11-04T00:24:47.379Z,765.76
2017-11-04T00:24:51.596Z,765.77
2017-11-04T00:24:55.676Z,765.77
2017-11-04T00:24:59.747Z,765.76
2017-11-04T00:25:03.950Z,765.75
2017-11-04T00:25:08.163Z,765.77
2017-11-04T00:25:12.245Z,765.76
2017-11-04T00:25:16.456Z,765.79
2017-11-04T00:25:20.810Z,765.79
2017-11-04T00:25:25.019Z,765.77
2017-11-04T00:25:28.962Z,765.8
2017-11-04T00:25:32.917Z,765.81
2017-11-04T00:25:36.994Z,765.79
2017-11-04T00:25:41.072Z,765.8
2017-11-04T00:25:45.015Z,765.82
2017-11-04T00:25:48.834Z,765.78
2017-11-04T00:25:53.055Z,765.81
2017-11-04T00:25:57.132Z,765.85
2017-11-04T00:26:00.943Z,765.85
2017-11-04T00:26:05.161Z,765.85
2017-11-04T00:26:08.843Z,765.86
2017-11-04T00:26:12.793Z,765.84
2017-11-04T00:26:16.867Z,765.86
2017-11-04T00:26:20.815Z,765.85
2017-11-04T00:26:24.905Z,765.89
2017-11-04T00:26:28.852Z,765.9
2017-11-04T00:26:32.934Z,765.88
2017-11-04T00:26:37.021Z,765.87
2017-11-04T00:26:41.229Z,765.89
2017-11-04T00:26:45.440Z,765.86
2017-11-04T00:26:49.386Z,765.9
2017-11-04T00:26:53.202Z,765.89
2017-11-04T00:26:57.020Z,765.91
2017-11-04T00:27:00.834Z,765.91
2017-11-04T00:27:05.087Z,765.93
2017-11-04T00:27:09.026Z,765.95
2017-11-04T00:27:12.973Z,765.97
2017-11-04T00:27:16.920Z,765.94
2017-11-04T00:27:21.003Z,765.98
2017-11-04T00:27:25.086Z,765.93
2017-11-04T00:27:29.302Z,765.97
2017-11-04T00:27:33.521Z,765.99
2017-11-04T00:27:37.331Z,765.96
2017-11-04T00:27:41.678Z,765.98
2017-11-04T00:27:45.757Z,766
2017-11-04T00:27:50.106Z,766.02
2017-11-04T00:27:54.320Z,766.02
2017-11-04T00:27:58.273Z,766.02
2017-11-04T00:28:02.218Z,766.04
2017-11-04T00:28:06.430Z,766.04
2017-11-04T00:28:10.648Z,766.06
2017-11-04T00:28:14.733Z,766.04
2017-11-04T00:28:18.816Z,766.05
2017-11-04T00:28:23.026Z,766.03
2017-11-04T00:28:26.973Z,766.04
2017-11-04T00:28:31.055Z,766.04
2017-11-04T00:28:34.871Z,766.06
2017-11-04T00:28:38.960Z,766.07
2017-11-04T00:28:43.041Z,766.04
2017-11-04T00:28:46.865Z,766.07
2017-11-04T00:28:50.949Z,766.08
2017-11-04T00:28:54.762Z,766.09
2017-11-04T00:28:58.582Z,766.08
2017-11-04T00:29:02.882Z,766.11
2017-11-04T00:29:06.974Z,766.1
2017-11-04T00:29:11.054Z,766.09
2017-11-04T00:29:14.998Z,766.13
2017-11-04T00:29:19.235Z,766.13
2017-11-04T00:29:23.187Z,766.12
2017-11-04T00:29:26.999Z,766.13
2017-11-04T00:29:30.953Z,766.12
2017-11-04T00:29:34.897Z,766.14
2017-11-04T00:29:38.717Z,766.15
2017-11-04T00:29:43.197Z,766.15
2017-11-04T00:29:47.145Z,766.15
2017-11-04T00:29:51.090Z,766.15
2017-11-04T00:29:55.041Z,766.2
2017-11-04T00:29:59.385Z,766.17
2017-11-04T00:30:03.604Z,766.18
2017-11-04T00:30:07.817Z,766.19
2017-11-04T00:30:11.767Z,766.17
2017-11-04T00:30:15.716Z,766.2
2017-11-04T00:30:19.812Z,766.19
2017-11-04T00:30:23.896Z,766.18
2017-11-04T00:30:28.102Z,766.22
2017-11-04T00:30:32.459Z,766.23
2017-11-04T00:30:36.280Z,766.22
2017-11-04T00:30:40.485Z,766.22
2017-11-04T00:30:44.688Z,766.25
2017-11-04T00:30:48.902Z,766.24
2017-11-04T00:30:53.119Z,766.25
2017-11-04T00:30:57.066Z,766.25
2017-11-04T00:31:01.147Z,766.25
2017-11-04T00:31:05.676Z,766.24
2017-11-04T00:31:09.623Z,766.23
2017-11-04T00:31:13.840Z,766.21
2017-11-04T00:31:17.792Z,766.25
2017-11-04T00:31:22.007Z,766.28
2017-11-04T00:31:26.082Z,766.27
2017-11-04T00:31:29.900Z,766.28
2017-11-04T00:31:33.984Z,766.27
2017-11-04T00:31:38.326Z,766.26
2017-11-04T00:31:42.409Z,766.32
2017-11-04T00:31:46.361Z,766.29
2017-11-04T00:31:50.570Z,766.28
2017-11-04T00:31:54.658Z,766.31
2017-11-04T00:31:59.028Z,766.32
2017-11-04T00:32:02.978Z,766.34
2017-11-04T00:32:07.205Z,766.34
2017-11-04T00:32:11.420Z,766.33
2017-11-04T00:32:15.362Z,766.33
2017-11-04T00:32:19.439Z,766.33
2017-11-04T00:32:23.523Z,766.32
2017-11-04T00:32:27.608Z,766.35
2017-11-04T00:32:31.822Z,766.31
2017-11-04T00:32:36.042Z,766.31
2017-11-04T00:32:40.151Z,766.39
2017-11-04T00:32:43.832Z,766.38
2017-11-04T00:32:48.045Z,766.38
2017-11-04T00:32:51.991Z,766.4
2017-11-04T00:32:56.071Z,766.39
2017-11-04T00:33:00.426Z,766.35
2017-11-04T00:33:04.386Z,766.38
2017-11-04T00:33:08.330Z,766.38
2017-11-04T00:33:12.417Z,766.41
2017-11-04T00:33:16.234Z,766.38
2017-11-04T00:33:20.441Z,766.38
2017-11-04T00:33:24.676Z,766.38
2017-11-04T00:33:28.753Z,766.45
2017-11-04T00:33:32.831Z,766.45
2017-11-04T00:33:37.205Z,766.45
2017-11-04T00:33:41.295Z,766.47
2017-11-04T00:33:45.117Z,766.46
2017-11-04T00:33:49.063Z,766.47
2017-11-04T00:33:53.138Z,766.47
2017-11-04T00:33:56.956Z,766.52
2017-11-04T00:34:01.053Z,766.49
2017-11-04T00:34:05.254Z,766.48
2017-11-04T00:34:09.202Z,766.5
2017-11-04T00:34:13.027Z,766.52
2017-11-04T00:34:16.842Z,766.5
2017-11-04T00:34:20.784Z,766.52
2017-11-04T00:34:24.869Z,766.53
2017-11-04T00:34:29.081Z,766.53
2017-11-04T00:34:33.165Z,766.51
2017-11-04T00:34:37.501Z,766.54
2017-11-04T00:34:41.316Z,766.51
2017-11-04T00:34:45.668Z,766.54
2017-11-04T00:34:49.745Z,766.52
2017-11-04T00:34:53.828Z,766.52
2017-11-04T00:34:58.306Z,766.48
2017-11-04T00:35:02.578Z,766.5
2017-11-04T00:35:06.661Z,766.54
2017-11-04T00:35:10.486Z,766.55
2017-11-04T00:35:14.436Z,766.56
2017-11-04T00:35:18.379Z,766.57
2017-11-04T00:35:22.592Z,766.55
2017-11-04T00:35:26.549Z,766.56
2017-11-04T00:35:30.633Z,766.55
2017-11-04T00:35:34.713Z,766.58
2017-11-04T00:35:38.951Z,766.59
2017-11-04T00:35:43.162Z,766.63
2017-11-04T00:35:47.365Z,766.57
2017-11-04T00:35:51.445Z,766.59
2017-11-04T00:35:55.655Z,766.58
2017-11-04T00:35:59.731Z,766.6
2017-11-04T00:36:03.651Z,766.62
2017-11-04T00:36:07.740Z,766.61
2017-11-04T00:36:11.818Z,766.66
2017-11-04T00:36:15.768Z,766.64
2017-11-04T00:36:20.254Z,766.64
2017-11-04T00:36:24.200Z,766.65
2017-11-04T00:36:28.412Z,766.65
2017-11-04T00:36:32.373Z,766.66
2017-11-04T00:36:36.317Z,766.64
2017-11-04T00:36:40.272Z,766.67
2017-11-04T00:36:44.233Z,766.71
2017-11-04T00:36:48.439Z,766.69
2017-11-04T00:36:52.642Z,766.66
2017-11-04T00:36:56.991Z,766.69
2017-11-04T00:37:01.072Z,766.71
2017-11-04T00:37:05.435Z,766.7
2017-11-04T00:37:09.652Z,766.71
2017-11-04T00:37:13.741Z,766.7
2017-11-04T00:37:17.688Z,766.69
2017-11-04T00:37:22.046Z,766.72
2017-11-04T00:37:26.133Z,766.7
2017-11-04T00:37:30.080Z,766.7
2017-11-04T00:37:34.285Z,766.74
2017-11-04T00:37:38.101Z,766.75
2017-11-04T00:37:42.306Z,766.7
2017-11-04T00:37:46.647Z,766.72
2017-11-04T00:37:50.599Z,766.76
2017-11-04T00:37:54.948Z,766.75
2017-11-04T00:37:59.025Z,766.76
2017-11-04T00:38:03.102Z,766.76
2017-11-04T00:38:07.052Z,766.76
2017-11-04T00:38:10.866Z,766.8
2017-11-04T00:38:14.813Z,766.8
2017-11-04T00:38:18.898Z,766.82
2017-11-04T00:38:23.112Z,766.84
2017-11-04T00:38:27.190Z,766.81
2017-11-04T00:38:31.276Z,766.84
2017-11-04T00:38:35.487Z,766.84
2017-11-04T00:38:39.305Z,766.84
2017-11-04T00:38:43.381Z,766.84
2017-11-04T00:38:47.640Z,766.86
2017-11-04T00:38:51.588Z,766.87
2017-11-04T00:38:55.275Z,766.88
2017-11-04T00:38:59.364Z,766.85
2017-11-04T00:39:03.626Z,766.89
2017-11-04T00:39:07.701Z,766.85
2017-11-04T00:39:11.919Z,766.88
2017-11-04T00:39:16.260Z,766.9
2017-11-04T00:39:19.943Z,766.89
2017-11-04T00:39:24.021Z,766.87
2017-11-04T00:39:28.232Z,766.9
2017-11-04T00:39:32.183Z,766.91
2017-11-04T00:39:36.130Z,766.91
2017-11-04T00:39:39.947Z,766.93
2017-11-04T00:39:44.035Z,766.87
2017-11-04T00:39:47.977Z,766.89
2017-11-04T00:39:52.331Z,766.88
2017-11-04T00:39:56.279Z,766.93
2017-11-04T00:40:00.224Z,766.92
2017-11-04T00:40:04.312Z,766.92
2017-11-04T00:40:08.391Z,766.94
2017-11-04T00:40:12.074Z,766.93
2017-11-04T00:40:16.290Z,766.93
2017-11-04T00:40:20.635Z,766.93
2017-11-04T00:40:24.449Z,766.95
2017-11-04T00:40:28.407Z,766.96
2017-11-04T00:40:32.625Z,766.95
2017-11-04T00:40:36.574Z,766.96
2017-11-04T00:40:40.387Z,766.97
2017-11-04T00:40:44.603Z,766.94
2017-11-04T00:40:48.553Z,766.95
2017-11-04T00:40:52.898Z,767
2017-11-04T00:40:56.983Z,767.02
2017-11-04T00:41:00.944Z,767.02
2017-11-04T00:41:04.825Z,767.02
2017-11-04T00:41:08.775Z,767.02
2017-11-04T00:41:12.723Z,767.06
2017-11-04T00:41:17.075Z,767.05
2017-11-04T00:41:21.426Z,767.05
2017-11-04T00:41:25.509Z,767.06
2017-11-04T00:41:29.716Z,767.06
2017-11-04T00:41:33.397Z,767.07
2017-11-04T00:41:37.344Z,767.04
2017-11-04T00:41:41.026Z,767.07
2017-11-04T00:41:44.969Z,767.1
2017-11-04T00:41:49.185Z,767.05
2017-11-04T00:41:53.141Z,767.12
2017-11-04T00:41:57.352Z,767.09
2017-11-04T00:42:01.566Z,767.1
2017-11-04T00:42:05.514Z,767.09
2017-11-04T00:42:09.854Z,767.12
2017-11-04T00:42:13.672Z,767.14
2017-11-04T00:42:17.626Z,767.12
2017-11-04T00:42:21.571Z,767.13
2017-11-04T00:42:25.646Z,767.14
2017-11-04T00:42:29.595Z,767.11
2017-11-04T00:42:33.688Z,767.15
2017-11-04T00:42:37.898Z,767.17
2017-11-04T00:42:41.977Z,767.19
2017-11-04T00:42:45.930Z,767.18
2017-11-04T00:42:49.874Z,767.21
2017-11-04T00:42:53.686Z,767.21
2017-11-04T00:42:57.766Z,767.2
2017-11-04T00:43:01.847Z,767.22
2017-11-04T00:43:06.194Z,767.25
2017-11-04T00:43:10.403Z,767.22
2017-11-04T00:43:14.516Z,767.16
2017-11-04T00:43:18.596Z,767.18
2017-11-04T00:43:22.413Z,767.19
2017-11-04T00:43:26.630Z,767.22
2017-11-04T00:43:30.709Z,767.25
2017-11-04T00:43:34.531Z,767.25
2017-11-04T00:43:38.619Z,767.26
2017-11-04T00:43:42.568Z,767.26
2017-11-04T00:43:46.777Z,767.28
2017-11-04T00:43:50.745Z,767.29
2017-11-04T00:43:54.830Z,767.28
2017-11-04T00:43:59.040Z,767.31
2017-11-04T00:44:03.389Z,767.29
2017-11-04T00:44:07.475Z,767.32
2017-11-04T00:44:11.162Z,767.3
2017-11-04T00:44:15.377Z,767.33
2017-11-04T00:44:19.453Z,767.31
2017-11-04T00:44:23.802Z,767.33
2017-11-04T00:44:28.028Z,767.36
2017-11-04T00:44:31.982Z,767.36
2017-11-04T00:44:35.797Z,767.34
2017-11-04T00:44:40.000Z,767.38
2017-11-04T00:44:44.219Z,767.36
2017-11-04T00:44:48.433Z,767.38
2017-11-04T00:44:52.644Z,767.36
2017-11-04T00:44:56.468Z,767.41
2017-11-04T00:45:00.284Z,767.41
2017-11-04T00:45:04.623Z,767.43
2017-11-04T00:45:08.710Z,767.42
2017-11-04T00:45:13.067Z,767.43
2017-11-04T00:45:17.141Z,767.42
2017-11-04T00:45:21.358Z,767.44
2017-11-04T00:45:25.575Z,767.42
2017-11-04T00:45:29.520Z,767.4
2017-11-04T00:45:33.480Z,767.45
2017-11-04T00:45:37.565Z,767.46
2017-11-04T00:45:41.771Z,767.45
2017-11-04T00:45:45.721Z,767.48
2017-11-04T00:45:49.673Z,767.46
2017-11-04T00:45:53.676Z,767.47
2017-11-04T00:45:57.751Z,767.47
2017-11-04T00:46:01.567Z,767.48
2017-11-04T00:46:05.385Z,767.51
2017-11-04T00:46:09.726Z,767.51
2017-11-04T00:46:13.672Z,767.52
2017-11-04T00:46:17.631Z,767.51
2017-11-04T00:46:21.709Z,767.53
2017-11-04T00:46:25.784Z,767.49
2017-11-04T00:46:29.870Z,767.52
2017-11-04T00:46:33.955Z,767.55
2017-11-04T00:46:38.171Z,767.57
2017-11-04T00:46:42.253Z,767.54
2017-11-04T00:46:46.493Z,767.57
2017-11-04T00:46:50.557Z,767.58
2017-11-04T00:46:54.631Z,767.58
2017-11-04T00:46:58.706Z,767.59
2017-11-04T00:47:02.922Z,767.59
2017-11-04T00:47:06.996Z,767.58
2017-11-04T00:47:11.211Z,767.59
2017-11-04T00:47:15.025Z,767.6
2017-11-04T00:47:18.968Z,767.59
2017-11-04T00:47:22.914Z,767.61
2017-11-04T00:47:27.025Z,767.59
2017-11-04T00:47:31.107Z,767.64
2017-11-04T00:47:35.323Z,767.63
2017-11-04T00:47:39.011Z,767.62
2017-11-04T00:47:42.700Z,767.63
2017-11-04T00:47:46.912Z,767.66
2017-11-04T00:47:51.124Z,767.69
2017-11-04T00:47:55.196Z,767.65
2017-11-04T00:47:59.279Z,767.66
2017-11-04T00:48:03.364Z,767.7
2017-11-04T00:48:07.572Z,767.72
2017-11-04T00:48:11.650Z,767.67
2017-11-04T00:48:15.746Z,767.7
2017-11-04T00:48:19.558Z,767.71
2017-11-04T00:48:23.635Z,767.7
2017-11-04T00:48:27.583Z,767.72
2017-11-04T00:48:31.687Z,767.71
2017-11-04T00:48:35.505Z,767.7
2017-11-04T00:48:39.457Z,767.72
2017-11-04T00:48:43.533Z,767.74
2017-11-04T00:48:47.486Z,767.72
2017-11-04T00:48:51.832Z,767.73
2017-11-04T00:48:55.917Z,767.7
2017-11-04T00:49:00.130Z,767.75
2017-11-04T00:49:04.335Z,767.71
2017-11-04T00:49:08.290Z,767.73
2017-11-04T00:49:12.103Z,767.74
2017-11-04T00:49:16.205Z,767.73
2017-11-04T00:49:20.551Z,767.73
2017-11-04T00:49:24.495Z,767.73
2017-11-04T00:49:28.704Z,767.77
2017-11-04T00:49:32.941Z,767.75
2017-11-04T00:49:36.751Z,767.76
2017-11-04T00:49:40.974Z,767.74
2017-11-04T00:49:44.920Z,767.71
2017-11-04T00:49:48.861Z,767.71
2017-11-04T00:49:52.936Z,767.71
2017-11-04T00:49:57.016Z,767.71
2017-11-04T00:50:01.227Z,767.79
2017-11-04T00:50:05.187Z,767.74
2017-11-04T00:50:09.282Z,767.77
2017-11-04T00:50:13.492Z,767.76
2017-11-04T00:50:17.575Z,767.77
2017-11-04T00:50:21.521Z,767.75
2017-11-04T00:50:25.749Z,767.75
2017-11-04T00:50:29.970Z,767.75
2017-11-04T00:50:33.922Z,767.77
2017-11-04T00:50:37.761Z,767.78
2017-11-04T00:50:41.975Z,767.8
2017-11-04T00:50:46.061Z,767.79
2017-11-04T00:50:50.140Z,767.78
2017-11-04T00:50:54.345Z,767.78
2017-11-04T00:50:58.445Z,767.8
2017-11-04T00:51:02.398Z,767.8
2017-11-04T00:51:06.768Z,767.77
2017-11-04T00:51:10.720Z,767.78
2017-11-04T00:51:14.801Z,767.82
2017-11-04T00:51:18.626Z,767.81
2017-11-04T00:51:22.574Z,767.76
2017-11-04T00:51:26.654Z,767.79